Time;durP1;ratioP1;P1;durP2;ratioP2;P2;SDS_P1;SDS_P2;PMS_P1;PMS_P2;Temp;Humidity;BMP_temperature;BMP_pressure;BME280_temperature;BME280_humidity;BME280_pressure;Samples;Min_cycle;Max_cycle;Signal;HPM_P1;HPM_P2
2022/11/08 00:02:06;;;;;;;16.52;2.92;;;14.60;99.90;;;;;;5089864;28;20139;-62
2022/11/08 00:04:33;;;;;;;24.55;2.80;;;14.50;99.90;;;;;;5089550;28;20132;-61
2022/11/08 00:15:16;;;;;;;20.08;3.17;;;14.50;99.90;;;;;;5091109;28;20074;-61
2022/11/08 00:17:43;;;;;;;14.27;3.60;;;14.40;99.90;;;;;;5088686;28;20207;-61
2022/11/08 00:20:10;;;;;;;15.52;2.40;;;14.50;99.90;;;;;;5089156;28;20048;-60
2022/11/08 00:22:37;;;;;;;20.00;3.10;;;14.40;99.90;;;;;;5089410;28;20048;-60
2022/11/08 00:25:04;;;;;;;18.70;3.67;;;14.40;99.90;;;;;;5089549;28;20050;-61
2022/11/08 00:27:31;;;;;;;14.48;3.20;;;14.40;99.90;;;;;;5088678;28;20453;-61
2022/11/08 00:29:58;;;;;;;16.55;3.25;;;14.40;99.90;;;;;;5090059;28;20087;-62
2022/11/08 00:32:25;;;;;;;21.15;3.33;;;14.40;99.90;;;;;;5091240;28;20489;-61
2022/11/08 00:34:52;;;;;;;13.18;3.00;;;14.40;99.90;;;;;;5090644;28;20090;-60
2022/11/08 00:37:19;;;;;;;12.90;3.17;;;14.40;99.90;;;;;;5089507;28;20544;-61
2022/11/08 00:39:46;;;;;;;21.00;3.72;;;14.40;99.90;;;;;;5089807;28;20046;-62
2022/11/08 00:42:13;;;;;;;15.85;3.30;;;14.30;99.90;;;;;;5090727;28;20147;-62
2022/11/08 00:44:39;;;;;;;19.83;3.00;;;14.40;99.90;;;;;;5089717;28;20044;-61
2022/11/08 00:47:06;;;;;;;14.70;2.63;;;14.40;99.90;;;;;;5090070;28;20069;-62
2022/11/08 00:49:33;;;;;;;16.70;3.42;;;14.40;99.90;;;;;;5090602;28;20044;-61
2022/11/08 00:51:59;;;;;;;16.30;3.95;;;14.40;99.90;;;;;;5091107;28;20070;-62
2022/11/08 00:54:26;;;;;;;17.45;3.47;;;14.40;99.90;;;;;;5089577;28;20409;-61
2022/11/08 00:56:53;;;;;;;17.20;2.97;;;14.40;99.90;;;;;;5089114;28;20055;-62
2022/11/08 00:59:20;;;;;;;23.30;3.35;;;14.40;99.90;;;;;;5072539;28;20590;-62
2022/11/08 01:01:46;;;;;;;12.68;3.47;;;14.40;99.90;;;;;;5090784;28;20050;-61
2022/11/08 01:04:16;;;;;;;11.73;2.70;;;14.40;99.90;;;;;;5089989;28;20447;-61
2022/11/08 01:06:42;;;;;;;16.05;3.05;;;14.40;99.90;;;;;;5089408;28;20066;-61
2022/11/08 01:09:09;;;;;;;16.45;3.05;;;14.40;99.90;;;;;;5090557;28;20151;-62
2022/11/08 01:11:37;;;;;;;20.83;3.50;;;14.40;99.90;;;;;;5089552;28;20055;-62
2022/11/08 01:14:04;;;;;;;17.30;3.55;;;14.40;99.90;;;;;;5090903;28;20417;-61
2022/11/08 01:16:31;;;;;;;22.45;4.10;;;14.40;99.90;;;;;;5089690;28;20044;-60
2022/11/08 01:18:58;;;;;;;15.18;3.08;;;14.40;99.90;;;;;;5089272;28;20050;-60
2022/11/08 01:21:25;;;;;;;20.98;3.70;;;14.50;99.90;;;;;;5089714;28;20147;-60
2022/11/08 01:23:53;;;;;;;18.98;3.30;;;14.40;99.90;;;;;;5090760;28;20110;-61
2022/11/08 01:26:24;;;;;;;12.95;3.08;;;14.40;99.90;;;;;;5089713;28;20054;-60
2022/11/08 01:28:52;;;;;;;21.33;3.72;;;14.50;99.90;;;;;;5090344;28;20079;-61
2022/11/08 01:31:20;;;;;;;15.05;2.75;;;14.50;99.90;;;;;;5088134;28;20052;-60
2022/11/08 01:33:47;;;;;;;19.80;3.90;;;14.40;99.90;;;;;;5089952;28;20044;-61
2022/11/08 01:36:21;;;;;;;15.65;2.80;;;14.40;99.90;;;;;;4819575;27;10001075;-61
2022/11/08 01:38:48;;;;;;;10.25;2.65;;;14.40;99.90;;;;;;5071812;28;20261;-61
2022/11/08 01:41:15;;;;;;;10.95;2.13;;;14.40;99.90;;;;;;5089432;28;20052;-61
2022/11/08 01:43:46;;;;;;;20.27;3.75;;;14.40;99.90;;;;;;5088596;28;20048;-60
2022/11/08 01:46:39;;;;;;;14.85;4.80;;;14.40;99.90;;;;;;5088754;28;20155;-61
2022/11/08 01:49:28;;;;;;;15.68;4.10;;;14.50;99.90;;;;;;5089094;28;20127;-61
2022/11/08 01:52:23;;;;;;;17.02;3.10;;;14.50;99.90;;;;;;5088416;28;20475;-61
2022/11/08 01:54:56;;;;;;;22.88;3.13;;;14.50;99.90;;;;;;5077733;28;20048;-61
2022/11/08 01:57:44;;;;;;;7.97;2.22;;;14.60;99.90;;;;;;5089129;28;20079;-60
2022/11/08 02:00:11;;;;;;;12.02;2.70;;;14.60;99.90;;;;;;5078656;28;20055;-61
2022/11/08 02:02:39;;;;;;;22.50;3.20;;;14.60;99.90;;;;;;5089346;28;20036;-60
2022/11/08 02:05:23;;;;;;;17.40;3.80;;;14.60;99.90;;;;;;5071618;28;20092;-60
2022/11/08 02:07:56;;;;;;;;;;;14.60;99.90;;;;;;5088661;28;20040;-60
2022/11/08 02:10:25;;;;;;;18.67;3.80;;;14.60;99.90;;;;;;5088946;28;19927;-60
2022/11/08 02:12:52;;;;;;;16.95;2.55;;;14.60;99.90;;;;;;5089210;28;20135;-60
2022/11/08 02:15:19;;;;;;;16.50;3.53;;;14.50;99.90;;;;;;5071000;28;20042;-60
2022/11/08 02:17:46;;;;;;;15.35;3.38;;;14.60;99.90;;;;;;5088160;28;20469;-60
2022/11/08 02:20:13;;;;;;;16.23;2.90;;;14.60;99.90;;;;;;5063551;28;20124;-61
2022/11/08 02:23:03;;;;;;;15.32;2.97;;;14.70;99.90;;;;;;5067644;28;20489;-61
2022/11/08 02:25:29;;;;;;;10.07;2.53;;;14.70;99.90;;;;;;5085006;28;20048;-60
2022/11/08 02:27:56;;;;;;;12.23;3.53;;;14.50;99.90;;;;;;5087948;28;20044;-61
2022/11/08 02:30:23;;;;;;;14.23;2.67;;;14.50;99.90;;;;;;5088648;28;20046;-60
2022/11/08 02:32:50;;;;;;;13.38;3.30;;;14.40;99.90;;;;;;5088139;28;20135;-61
2022/11/08 02:35:17;;;;;;;12.35;3.13;;;14.30;99.90;;;;;;5087131;28;20051;-61
2022/11/08 02:37:44;;;;;;;14.13;3.03;;;14.20;99.90;;;;;;5087934;28;20498;-62
2022/11/08 02:40:11;;;;;;;6.90;2.38;;;14.20;99.90;;;;;;5070811;28;20163;-60
2022/11/08 02:42:38;;;;;;;9.32;2.58;;;14.30;99.90;;;;;;5088793;28;20079;-61
2022/11/08 02:45:05;;;;;;;20.27;3.45;;;14.30;99.90;;;;;;5088639;28;20673;-63
2022/11/08 02:47:32;;;;;;;8.68;2.40;;;14.40;99.90;;;;;;5088542;28;20047;-60
2022/11/08 02:49:59;;;;;;;20.33;2.95;;;14.40;99.90;;;;;;5087529;28;20054;-61
2022/11/08 02:52:26;;;;;;;23.60;3.55;;;14.50;99.90;;;;;;5070533;28;20040;-60
2022/11/08 02:54:52;;;;;;;16.08;3.33;;;14.60;99.90;;;;;;5088423;28;20069;-61
2022/11/08 02:57:19;;;;;;;10.20;2.28;;;14.70;99.90;;;;;;5088153;28;20052;-60
2022/11/08 02:59:47;;;;;;;9.73;2.97;;;14.70;99.90;;;;;;5088429;28;20046;-61
2022/11/08 03:02:14;;;;;;;15.27;2.63;;;14.70;99.90;;;;;;5088912;28;20079;-63
2022/11/08 03:04:41;;;;;;;12.57;2.58;;;14.70;99.90;;;;;;5088354;28;20423;-61
2022/11/08 03:07:08;;;;;;;11.07;2.17;;;14.80;99.90;;;;;;5088609;28;20505;-61
2022/11/08 03:09:35;;;;;;;13.50;2.47;;;14.80;99.90;;;;;;5070373;28;20047;-61
2022/11/08 03:12:01;;;;;;;17.02;2.35;;;14.70;99.90;;;;;;5090830;28;20054;-61
2022/11/08 03:14:28;;;;;;;13.80;2.70;;;14.70;99.90;;;;;;5092279;28;20139;-61
2022/11/08 03:16:55;;;;;;;8.60;2.70;;;14.60;99.90;;;;;;5088072;28;20413;-61
2022/11/08 03:19:22;;;;;;;8.85;2.13;;;14.60;99.90;;;;;;5088143;28;20103;-60
2022/11/08 03:21:48;;;;;;;15.23;4.22;;;14.60;99.90;;;;;;5088216;28;20130;-61
2022/11/08 03:24:15;;;;;;;11.93;2.70;;;14.60;99.90;;;;;;5087466;28;20131;-61
2022/11/08 03:26:42;;;;;;;15.88;2.42;;;14.50;99.90;;;;;;5088429;28;20051;-61
2022/11/08 03:29:08;;;;;;;17.83;3.13;;;14.40;99.90;;;;;;5088637;28;20044;-60
2022/11/08 03:31:35;;;;;;;16.27;3.75;;;14.30;99.90;;;;;;5088187;28;20502;-60
2022/11/08 03:34:04;;;;;;;11.07;2.47;;;14.30;99.90;;;;;;5087308;28;20048;-61
2022/11/08 03:36:31;;;;;;;14.77;2.35;;;14.20;99.90;;;;;;5087763;28;20439;-61
2022/11/08 03:38:58;;;;;;;10.07;2.42;;;14.20;99.90;;;;;;5088439;28;20048;-61
2022/11/08 03:41:25;;;;;;;11.75;1.95;;;14.20;99.90;;;;;;5087652;28;20055;-60
2022/11/08 03:43:51;;;;;;;13.18;2.05;;;14.20;99.90;;;;;;5088576;28;20056;-60
2022/11/08 03:46:18;;;;;;;9.45;2.10;;;14.20;99.90;;;;;;5087777;28;20123;-60
2022/11/08 03:48:45;;;;;;;11.35;2.35;;;14.20;99.90;;;;;;5088106;28;20040;-60
2022/11/08 03:51:12;;;;;;;9.10;3.25;;;14.20;99.90;;;;;;5086688;28;20048;-60
2022/11/08 03:53:38;;;;;;;12.07;2.22;;;14.20;99.90;;;;;;5086997;28;20275;-61
2022/11/08 03:56:06;;;;;;;11.13;2.25;;;14.20;99.90;;;;;;5088518;28;20466;-61
2022/11/08 03:58:34;;;;;;;8.32;1.77;;;14.20;99.90;;;;;;5087734;28;20054;-60
2022/11/08 04:01:04;;;;;;;7.35;2.30;;;14.10;99.90;;;;;;5089802;28;20510;-60
2022/11/08 04:03:31;;;;;;;6.95;1.98;;;14.10;99.90;;;;;;5089079;28;20055;-60
2022/11/08 04:06:02;;;;;;;8.57;2.05;;;14.00;99.90;;;;;;5091786;28;20044;-60
2022/11/08 04:08:29;;;;;;;9.63;2.28;;;13.90;99.90;;;;;;5091270;28;20406;-60
2022/11/08 04:15:13;;;;;;;11.25;2.85;;;13.80;99.90;;;;;;5091939;28;20414;-60
2022/11/08 04:16:30;;;;;;;6.45;2.30;;;13.70;99.90;;;;;;5091411;28;20048;-61
2022/11/08 04:21:44;;;;;;;11.25;2.08;;;13.60;99.90;;;;;;5091747;28;20052;-60
2022/11/08 04:24:11;;;;;;;11.80;2.50;;;13.60;99.90;;;;;;5073177;28;20047;-61
2022/11/08 04:26:39;;;;;;;15.80;3.00;;;13.60;99.90;;;;;;5090443;28;20051;-61
2022/11/08 04:29:06;;;;;;;8.90;2.35;;;13.60;99.90;;;;;;5091574;28;20063;-61
2022/11/08 04:31:33;;;;;;;7.85;2.63;;;13.60;99.90;;;;;;5091239;28;20529;-61
2022/11/08 04:34:00;;;;;;;12.70;2.33;;;13.60;99.90;;;;;;5091422;28;20044;-61
2022/11/08 04:36:27;;;;;;;11.18;2.38;;;13.60;99.90;;;;;;5090921;28;20134;-61
2022/11/08 04:38:54;;;;;;;13.00;2.92;;;13.60;99.90;;;;;;5089571;28;20082;-61
2022/11/08 04:41:22;;;;;;;10.98;3.28;;;13.60;99.90;;;;;;5090822;28;20058;-61
2022/11/08 04:43:49;;;;;;;8.85;1.83;;;13.60;99.90;;;;;;5089967;28;20048;-61
2022/11/08 04:46:18;;;;;;;10.23;1.83;;;13.60;99.90;;;;;;5090106;28;20071;-60
2022/11/08 04:48:45;;;;;;;10.45;2.10;;;13.60;99.90;;;;;;5089833;28;20044;-60
2022/11/08 04:51:13;;;;;;;12.63;2.55;;;13.60;99.90;;;;;;5091395;28;20142;-60
2022/11/08 04:53:41;;;;;;;12.50;2.97;;;13.60;99.90;;;;;;5091046;28;20130;-60
2022/11/08 04:56:09;;;;;;;9.85;2.25;;;13.50;99.90;;;;;;5091661;28;20059;-62
2022/11/08 04:58:43;;;;;;;12.52;2.67;;;13.50;99.90;;;;;;5090193;28;20064;-61
2022/11/08 05:01:13;;;;;;;16.33;2.35;;;13.50;99.90;;;;;;5091192;28;20052;-60
2022/11/08 05:03:40;;;;;;;7.10;1.90;;;13.50;99.90;;;;;;5090597;28;20044;-61
2022/11/08 05:06:12;;;;;;;10.32;2.58;;;13.40;99.90;;;;;;5090519;28;20044;-61
2022/11/08 05:08:39;;;;;;;13.93;2.63;;;13.40;99.90;;;;;;5072821;28;20146;-61
2022/11/08 05:11:10;;;;;;;11.38;2.33;;;13.30;99.90;;;;;;5090865;28;20399;-61
2022/11/08 05:13:37;;;;;;;10.35;2.15;;;13.30;99.90;;;;;;5089689;28;20048;-61
2022/11/08 05:16:12;;;;;;;10.90;1.88;;;13.30;99.90;;;;;;5090597;28;20056;-61
2022/11/08 05:18:39;;;;;;;9.38;1.98;;;13.30;99.90;;;;;;5089179;28;20060;-60
2022/11/08 05:23:58;;;;;;;9.35;2.15;;;13.30;99.90;;;;;;5090307;28;20413;-60
2022/11/08 05:26:25;;;;;;;9.48;1.67;;;13.30;99.90;;;;;;5089994;28;20054;-60
2022/11/08 05:28:51;;;;;;;13.55;2.13;;;13.30;99.90;;;;;;5089588;28;20044;-60
2022/11/08 05:31:18;;;;;;;12.35;1.52;;;13.30;99.90;;;;;;5090330;28;20069;-61
2022/11/08 05:33:45;;;;;;;5.65;2.00;;;13.30;99.90;;;;;;5088565;28;20135;-62
2022/11/08 05:36:13;;;;;;;13.20;1.85;;;13.20;99.90;;;;;;5088386;28;20055;-60
2022/11/08 05:38:40;;;;;;;9.75;1.73;;;13.20;99.90;;;;;;5089846;28;20521;-60
2022/11/08 05:41:15;;;;;;;7.28;1.42;;;13.20;99.90;;;;;;5089808;28;20101;-60
2022/11/08 05:43:44;;;;;;;31.00;3.60;;;13.10;99.90;;;;;;5088552;28;20044;-61
2022/11/08 05:46:11;;;;;;;8.40;1.88;;;13.10;99.90;;;;;;5088584;28;20044;-60
2022/11/08 05:48:37;;;;;;;9.82;1.40;;;13.10;99.90;;;;;;5088304;28;20517;-62
2022/11/08 05:51:04;;;;;;;10.40;1.80;;;13.10;99.90;;;;;;5071541;28;20090;-61
2022/11/08 05:53:31;;;;;;;8.10;1.60;;;13.10;99.90;;;;;;5089572;28;20525;-62
2022/11/08 05:55:59;;;;;;;7.70;1.48;;;13.00;99.90;;;;;;5088089;28;20062;-61
2022/11/08 05:58:26;;;;;;;4.18;1.95;;;13.10;99.90;;;;;;5089660;28;20055;-61
2022/11/08 06:01:00;;;;;;;7.85;1.50;;;13.00;99.90;;;;;;5088318;28;20043;-62
2022/11/08 06:03:27;;;;;;;8.50;2.00;;;13.10;99.90;;;;;;5089282;28;20080;-61
2022/11/08 06:05:55;;;;;;;12.15;1.88;;;13.10;99.90;;;;;;5088180;28;20326;-61
2022/11/08 06:08:21;;;;;;;4.97;1.45;;;13.10;99.90;;;;;;5089027;28;20067;-61
2022/11/08 06:10:48;;;;;;;13.82;2.30;;;13.10;99.90;;;;;;5087928;28;20048;-61
2022/11/08 06:13:15;;;;;;;9.70;1.52;;;13.10;99.90;;;;;;5089458;28;20429;-61
2022/11/08 06:15:42;;;;;;;14.23;2.13;;;13.10;99.90;;;;;;5088087;28;20123;-60
2022/11/08 06:18:08;;;;;;;13.15;2.08;;;13.00;99.90;;;;;;5089048;28;20040;-61
2022/11/08 06:20:35;;;;;;;12.25;2.13;;;13.10;99.90;;;;;;5088830;28;20553;-61
2022/11/08 06:23:02;;;;;;;8.90;1.83;;;13.10;99.90;;;;;;5088931;28;20109;-60
2022/11/08 06:25:29;;;;;;;6.55;1.30;;;13.10;99.90;;;;;;5089063;28;20157;-61
2022/11/08 06:28:03;;;;;;;10.49;1.37;;;13.10;99.90;;;;;;4991746;27;10001476;-64
2022/11/08 06:30:30;;;;;;;9.25;1.52;;;13.10;99.90;;;;;;5084796;28;20246;-60
2022/11/08 06:32:59;;;;;;;10.38;1.95;;;13.10;99.90;;;;;;5085663;28;20139;-61
2022/11/08 06:35:25;;;;;;;14.35;1.70;;;13.10;99.90;;;;;;5084116;28;20142;-61
2022/11/08 06:37:53;;;;;;;8.95;1.77;;;13.10;99.90;;;;;;5085388;28;20207;-61
2022/11/08 06:40:26;;;;;;;17.23;3.67;;;13.10;99.90;;;;;;5083578;28;20125;-61
2022/11/08 06:42:53;;;;;;;11.32;2.72;;;13.10;99.90;;;;;;5085946;28;20052;-61
2022/11/08 06:45:20;;;;;;;14.05;4.07;;;13.10;99.90;;;;;;5084639;28;20048;-62
2022/11/08 06:47:46;;;;;;;12.27;2.17;;;13.10;99.90;;;;;;5085683;28;20040;-60
2022/11/08 06:50:13;;;;;;;8.75;1.45;;;13.20;99.90;;;;;;5086936;28;20051;-60
2022/11/08 06:52:40;;;;;;;12.93;2.83;;;13.20;99.90;;;;;;5084602;28;20139;-61
2022/11/08 06:55:07;;;;;;;13.07;1.60;;;13.30;99.90;;;;;;5085508;28;20157;-60
2022/11/08 06:57:34;;;;;;;12.15;1.77;;;13.20;99.90;;;;;;5084501;28;20121;-60
2022/11/08 07:00:01;;;;;;;13.48;2.35;;;13.30;99.90;;;;;;5084815;28;20542;-60
2022/11/08 07:02:28;;;;;;;15.90;2.25;;;13.30;99.90;;;;;;5084269;28;20544;-61
2022/11/08 07:04:55;;;;;;;8.30;1.83;;;13.30;99.90;;;;;;5073895;28;20487;-62
2022/11/08 07:07:22;;;;;;;14.73;2.63;;;13.30;99.90;;;;;;5083076;28;20427;-63
2022/11/08 07:09:49;;;;;;;22.85;2.35;;;13.30;99.90;;;;;;5084878;28;20051;-60
2022/11/08 07:12:16;;;;;;;8.90;1.77;;;13.40;99.90;;;;;;5084853;28;20403;-60
2022/11/08 07:14:43;;;;;;;13.60;2.70;;;13.30;99.90;;;;;;5083065;28;20083;-61
2022/11/08 07:17:09;;;;;;;13.63;2.30;;;13.40;99.90;;;;;;5082647;28;20499;-62
2022/11/08 07:19:36;;;;;;;16.77;3.25;;;13.40;99.90;;;;;;5083610;28;20395;-61
2022/11/08 07:22:03;;;;;;;15.73;3.35;;;13.40;99.90;;;;;;5085121;28;20141;-62
2022/11/08 07:24:30;;;;;;;16.38;2.17;;;13.30;99.90;;;;;;5082719;28;20185;-61
2022/11/08 07:26:57;;;;;;;19.15;2.30;;;13.10;99.90;;;;;;5050412;28;20506;-61
2022/11/08 07:29:23;;;;;;;12.43;2.67;;;12.90;99.90;;;;;;5045724;28;20159;-61
2022/11/08 07:31:50;;;;;;;15.60;2.58;;;12.80;99.90;;;;;;5080540;28;20079;-60
2022/11/08 07:34:17;;;;;;;21.48;2.65;;;12.70;99.90;;;;;;5084019;28;20499;-61
2022/11/08 07:36:44;;;;;;;16.40;2.42;;;12.70;99.90;;;;;;5087489;28;20093;-61
2022/11/08 07:39:11;;;;;;;17.05;3.58;;;12.70;99.90;;;;;;5088720;28;20517;-60
2022/11/08 07:41:37;;;;;;;15.77;2.50;;;12.70;99.90;;;;;;5070094;28;20166;-61
2022/11/08 07:44:05;;;;;;;16.25;4.13;;;12.70;99.90;;;;;;5088808;28;20095;-60
2022/11/08 07:46:31;;;;;;;20.55;3.55;;;12.70;99.90;;;;;;5071246;28;20052;-63
2022/11/08 07:48:59;;;;;;;19.90;2.85;;;12.70;99.90;;;;;;5088337;28;20578;-61
2022/11/08 07:51:26;;;;;;;24.48;3.28;;;12.80;99.90;;;;;;5085682;28;20048;-61
2022/11/08 07:53:53;;;;;;;16.55;3.13;;;12.80;99.90;;;;;;5085235;28;20174;-63
2022/11/08 07:56:24;;;;;;;23.73;5.15;;;12.80;99.90;;;;;;5086148;28;20052;-60
2022/11/08 07:58:52;;;;;;;16.80;2.67;;;12.90;99.90;;;;;;5087577;28;20064;-60
2022/11/08 08:01:19;;;;;;;22.92;3.08;;;12.90;99.90;;;;;;5084588;28;20063;-60
2022/11/08 08:03:45;;;;;;;18.50;3.50;;;13.00;99.90;;;;;;5053074;28;20302;-61
2022/11/08 08:06:22;;;;;;;21.65;3.65;;;13.00;99.90;;;;;;5086402;28;20108;-60
2022/11/08 08:08:49;;;;;;;27.02;3.75;;;13.10;99.90;;;;;;5088591;28;20502;-58
2022/11/08 08:11:16;;;;;;;19.52;3.97;;;13.20;99.90;;;;;;5087452;28;20075;-60
2022/11/08 08:13:43;;;;;;;24.70;3.63;;;13.20;99.90;;;;;;5087824;28;20730;-60
2022/11/08 08:16:11;;;;;;;14.80;3.47;;;13.20;99.90;;;;;;5091276;28;20072;-60
2022/11/08 08:18:38;;;;;;;23.42;5.50;;;13.20;99.90;;;;;;5093452;28;20083;-60
2022/11/08 08:21:07;;;;;;;22.70;3.60;;;13.30;99.90;;;;;;5092240;28;20043;-61
2022/11/08 08:23:34;;;;;;;24.42;3.85;;;13.30;99.90;;;;;;5094250;28;20082;-62
2022/11/08 08:26:03;;;;;;;15.73;3.40;;;13.30;99.90;;;;;;5094571;28;20317;-60
2022/11/08 08:28:30;;;;;;;36.75;6.70;;;13.40;99.90;;;;;;5094364;28;20109;-60
2022/11/08 08:30:57;;;;;;;20.73;3.65;;;13.40;99.90;;;;;;5094368;28;20094;-60
2022/11/08 08:33:24;;;;;;;32.55;4.50;;;13.40;99.90;;;;;;5093748;28;20048;-62
2022/11/08 08:35:56;;;;;;;25.83;4.43;;;13.40;99.90;;;;;;5075764;28;20116;-60
2022/11/08 08:38:25;;;;;;;15.95;3.50;;;13.50;99.90;;;;;;5093784;28;20127;-62
2022/11/08 08:40:52;;;;;;;25.00;4.43;;;13.50;99.90;;;;;;5108659;28;20569;-60
2022/11/08 08:43:20;;;;;;;30.75;5.00;;;13.50;99.90;;;;;;5073933;28;20044;-62
2022/11/08 08:45:48;;;;;;;19.33;2.83;;;13.50;99.90;;;;;;5090811;28;20163;-63
2022/11/08 08:48:15;;;;;;;29.35;4.53;;;13.60;99.90;;;;;;5090202;28;20434;-62
2022/11/08 08:50:41;;;;;;;20.23;3.97;;;13.60;99.90;;;;;;5072743;28;20068;-60
2022/11/08 08:53:09;;;;;;;18.27;3.58;;;13.60;99.90;;;;;;5089811;28;20126;-61
2022/11/08 08:55:37;;;;;;;23.95;4.68;;;13.60;99.90;;;;;;5093065;28;20051;-67
2022/11/08 08:58:04;;;;;;;26.05;3.47;;;13.60;99.90;;;;;;5076164;28;20483;-65
2022/11/08 09:00:31;;;;;;;27.40;3.10;;;13.60;99.90;;;;;;5090133;28;20044;-66
2022/11/08 09:03:18;;;;;;;20.13;3.80;;;13.60;99.90;;;;;;5090975;28;20212;-69
2022/11/08 09:05:46;;;;;;;17.33;3.25;;;13.60;99.90;;;;;;5073367;28;20387;-67
2022/11/08 09:08:13;;;;;;;30.67;4.22;;;13.60;99.90;;;;;;5091099;28;20040;-67
2022/11/08 09:10:40;;;;;;;21.00;3.00;;;13.60;99.90;;;;;;5089897;28;20052;-67
2022/11/08 09:13:07;;;;;;;15.95;2.63;;;13.60;99.90;;;;;;5090755;28;20097;-68
2022/11/08 09:15:35;;;;;;;18.67;2.42;;;13.60;99.90;;;;;;5087208;28;20047;-68
2022/11/08 09:18:02;;;;;;;12.82;2.55;;;13.60;99.90;;;;;;5082530;28;20091;-69
2022/11/08 09:20:29;;;;;;;15.00;2.63;;;13.50;99.90;;;;;;5090358;28;20051;-66
2022/11/08 09:23:03;;;;;;;13.02;2.85;;;13.50;99.90;;;;;;5088792;28;20063;-67
2022/11/08 09:25:30;;;;;;;20.00;3.13;;;13.50;99.90;;;;;;5080533;28;20040;-67
2022/11/08 09:28:00;;;;;;;19.50;3.80;;;13.60;99.90;;;;;;5078800;28;20040;-68
2022/11/08 09:30:28;;;;;;;15.13;3.60;;;13.60;99.90;;;;;;5065308;28;20051;-69
2022/11/08 09:32:55;;;;;;;18.75;3.55;;;13.60;99.90;;;;;;5089093;28;20097;-68
2022/11/08 09:35:28;;;;;;;18.35;2.95;;;13.70;99.90;;;;;;5087199;28;20083;-69
2022/11/08 09:37:55;;;;;;;19.15;3.95;;;13.80;99.90;;;;;;5087022;28;20395;-68
2022/11/08 09:40:31;;;;;;;17.15;2.85;;;13.90;99.90;;;;;;5090435;28;20072;-70
2022/11/08 09:43:01;;;;;;;22.73;2.90;;;13.90;99.90;;;;;;5087823;28;20577;-69
2022/11/08 09:45:31;;;;;;;23.00;3.65;;;14.00;99.90;;;;;;5088197;28;20052;-69
2022/11/08 09:47:59;;;;;;;21.70;4.25;;;14.10;99.90;;;;;;5090063;28;20623;-68
2022/11/08 09:50:41;;;;;;;19.35;2.97;;;14.20;99.90;;;;;;5082127;28;20043;-69
2022/11/08 09:53:08;;;;;;;21.60;2.83;;;14.20;99.90;;;;;;5072255;28;20492;-70
2022/11/08 09:55:57;;;;;;;20.05;3.58;;;14.10;99.90;;;;;;5089912;28;20067;-69
2022/11/08 09:58:48;;;;;;;17.63;3.33;;;14.10;99.90;;;;;;5089518;28;20511;-69
2022/11/08 10:01:15;;;;;;;19.10;4.63;;;14.10;99.90;;;;;;5080101;28;20049;-68
2022/11/08 10:03:45;;;;;;;21.25;3.13;;;14.10;99.90;;;;;;5087472;28;20059;-66
2022/11/08 10:06:21;;;;;;;21.40;4.72;;;14.20;99.90;;;;;;5089933;28;20040;-68
2022/11/08 10:09:17;;;;;;;15.07;2.50;;;14.30;99.90;;;;;;5081850;28;20090;-68
2022/11/08 10:12:42;;;;;;;19.58;2.97;;;14.30;99.90;;;;;;5072569;28;22300;-70
2022/11/08 10:15:43;;;;;;;20.25;3.25;;;14.30;99.90;;;;;;5038246;28;20036;-69
2022/11/08 10:18:56;;;;;;;14.60;3.15;;;14.30;99.90;;;;;;5066956;28;20045;-68
2022/11/08 10:21:29;;;;;;;23.65;2.42;;;14.20;99.90;;;;;;5086812;28;20058;-71
2022/11/08 10:24:27;;;;;;;16.42;4.45;;;14.10;99.90;;;;;;5090275;28;20048;-68
2022/11/08 10:26:57;;;;;;;21.67;4.68;;;14.00;99.90;;;;;;5078516;28;20052;-68
2022/11/08 10:29:28;;;;;;;17.17;3.30;;;13.90;99.90;;;;;;5071880;28;20142;-68
2022/11/08 10:31:57;;;;;;;8.32;2.35;;;13.90;99.90;;;;;;5083828;28;20079;-68
2022/11/08 10:34:26;;;;;;;13.75;2.53;;;13.80;99.90;;;;;;5086990;28;20054;-67
2022/11/08 10:37:02;;;;;;;18.35;2.63;;;13.80;99.90;;;;;;5056287;28;20135;-67
2022/11/08 10:39:31;;;;;;;10.73;2.40;;;13.90;99.90;;;;;;5070821;28;20504;-68
2022/11/08 10:42:16;;;;;;;11.57;2.25;;;14.00;99.90;;;;;;5084904;28;20062;-68
2022/11/08 10:44:42;;;;;;;14.63;2.40;;;14.00;99.90;;;;;;5087986;28;20139;-68
2022/11/08 10:47:12;;;;;;;15.82;3.88;;;14.10;99.90;;;;;;5089252;28;20076;-68
2022/11/08 10:49:43;;;;;;;17.75;3.30;;;14.10;99.90;;;;;;5071099;28;20565;-68
2022/11/08 10:52:18;;;;;;;14.27;2.35;;;14.10;99.90;;;;;;5055050;28;20055;-68
2022/11/08 10:54:57;;;;;;;21.38;3.83;;;14.20;99.90;;;;;;5088339;28;20135;-68
2022/11/08 10:57:27;;;;;;;14.82;2.53;;;14.20;99.90;;;;;;5072110;28;20126;-68
2022/11/08 10:59:54;;;;;;;23.85;3.85;;;14.40;99.90;;;;;;5090361;28;20048;-68
2022/11/08 11:02:21;;;;;;;21.33;3.95;;;14.40;99.90;;;;;;5088050;28;20063;-68
2022/11/08 11:04:48;;;;;;;22.27;4.13;;;14.50;99.90;;;;;;5089540;28;20048;-68
2022/11/08 11:07:32;;;;;;;18.00;3.17;;;14.60;99.90;;;;;;5055100;28;20517;-68
2022/11/08 11:10:31;;;;;;;15.55;3.30;;;14.60;99.90;;;;;;5089500;28;20048;-68
2022/11/08 11:13:18;;;;;;;15.25;2.78;;;14.60;99.90;;;;;;5073425;28;20554;-68
2022/11/08 11:15:46;;;;;;;18.23;3.15;;;14.60;99.90;;;;;;5089074;28;20495;-68
2022/11/08 11:18:46;;;;;;;18.65;3.35;;;14.40;99.90;;;;;;5088411;28;20044;-68
2022/11/08 11:21:19;;;;;;;20.92;3.05;;;14.30;99.90;;;;;;5088309;28;20085;-68
2022/11/08 11:23:51;;;;;;;28.08;4.70;;;14.10;99.90;;;;;;5076786;28;20483;-66
2022/11/08 11:26:28;;;;;;;17.45;2.97;;;13.90;99.90;;;;;;5087789;28;20075;-67
2022/11/08 11:29:20;;;;;;;12.60;2.78;;;13.60;99.90;;;;;;5088289;28;20396;-65
2022/11/08 11:31:50;;;;;;;19.30;2.42;;;13.50;99.90;;;;;;5089149;28;20161;-66
2022/11/08 11:34:33;;;;;;;22.15;3.65;;;13.30;99.90;;;;;;5072341;28;20434;-67
2022/11/08 11:37:09;;;;;;;15.63;3.67;;;13.30;99.90;;;;;;5089028;28;20442;-66
2022/11/08 11:39:54;;;;;;;18.13;3.22;;;13.30;99.90;;;;;;5089029;28;20498;-66
2022/11/08 11:42:45;;;;;;;20.67;3.38;;;13.40;99.90;;;;;;5087712;28;20131;-66
2022/11/08 11:45:26;;;;;;;16.45;3.75;;;13.40;99.90;;;;;;5088372;28;20080;-67
2022/11/08 11:48:00;;;;;;;15.60;2.75;;;13.50;99.90;;;;;;5071393;28;20048;-67
2022/11/08 11:50:40;;;;;;;29.73;4.18;;;13.50;99.90;;;;;;5054834;28;20048;-67
2022/11/08 11:53:19;;;;;;;23.13;4.13;;;13.70;99.90;;;;;;5071046;28;20131;-66
2022/11/08 11:56:05;;;;;;;21.67;4.20;;;13.80;99.90;;;;;;5071385;28;20134;-66
2022/11/08 11:59:23;;;;;;;25.50;3.42;;;13.80;99.90;;;;;;5086903;28;20074;-67
2022/11/08 12:02:16;;;;;;;17.05;4.05;;;14.10;99.90;;;;;;5040773;28;20487;-68
2022/11/08 12:05:24;;;;;;;24.95;4.22;;;14.30;99.90;;;;;;5085232;28;20154;-68
2022/11/08 12:08:04;;;;;;;22.80;3.03;;;14.30;99.90;;;;;;5087391;28;20044;-66
2022/11/08 12:10:59;;;;;;;15.80;3.70;;;14.30;99.90;;;;;;5077782;28;20135;-68
2022/11/08 12:14:03;;;;;;;18.35;3.80;;;14.20;99.90;;;;;;5073459;28;20048;-66
2022/11/08 12:16:40;;;;;;;17.90;3.85;;;14.20;99.90;;;;;;5087293;28;20143;-66
2022/11/08 12:19:35;;;;;;;18.58;3.30;;;14.30;99.90;;;;;;5087545;28;20055;-66
2022/11/08 12:22:05;;;;;;;15.95;3.22;;;14.30;99.90;;;;;;5069110;28;20075;-68
2022/11/08 12:24:54;;;;;;;15.65;3.28;;;14.30;99.90;;;;;;5085929;28;20048;-67
2022/11/08 12:27:39;;;;;;;18.88;3.67;;;14.30;99.90;;;;;;5071166;28;20048;-67
2022/11/08 12:30:17;;;;;;;14.88;2.88;;;14.30;99.90;;;;;;5089282;28;20040;-67
2022/11/08 12:32:49;;;;;;;21.95;3.65;;;14.40;99.90;;;;;;5090978;28;20052;-67
2022/11/08 12:35:25;;;;;;;15.90;2.70;;;14.40;99.90;;;;;;5090617;28;20079;-68
2022/11/08 12:37:59;;;;;;;14.18;2.55;;;14.50;99.90;;;;;;5091476;28;20048;-68
2022/11/08 12:40:39;;;;;;;27.92;5.38;;;14.50;99.90;;;;;;5091656;28;20074;-67
2022/11/08 12:43:18;;;;;;;20.02;3.80;;;14.60;99.90;;;;;;5091436;28;20052;-68
2022/11/08 12:46:11;;;;;;;19.33;4.22;;;14.50;99.90;;;;;;5091731;28;20104;-67
2022/11/08 12:49:16;;;;;;;19.60;3.28;;;14.50;99.90;;;;;;5090564;28;20729;-68
2022/11/08 12:52:11;;;;;;;28.80;3.50;;;14.60;99.90;;;;;;5081171;28;20486;-67
2022/11/08 12:54:38;;;;;;;20.30;3.42;;;14.60;99.90;;;;;;5083385;28;20147;-67
2022/11/08 12:57:30;;;;;;;23.45;4.07;;;14.60;99.90;;;;;;5092124;28;20082;-68
2022/11/08 13:00:07;;;;;;;13.02;2.72;;;14.50;99.90;;;;;;5090709;28;20052;-68
2022/11/08 13:02:38;;;;;;;20.63;3.40;;;14.50;99.90;;;;;;5073826;28;20079;-68
2022/11/08 13:05:31;;;;;;;20.88;3.50;;;14.50;99.90;;;;;;5090210;28;20210;-67
2022/11/08 13:08:43;;;;;;;23.10;3.28;;;14.50;99.90;;;;;;5090792;28;20087;-67
2022/11/08 13:11:14;;;;;;;23.55;4.50;;;14.50;99.90;;;;;;5012339;28;20511;-68
2022/11/08 13:13:52;;;;;;;19.23;3.88;;;14.40;99.90;;;;;;5047720;28;20052;-68
2022/11/08 13:16:24;;;;;;;16.77;3.72;;;14.20;99.90;;;;;;5085999;28;20131;-68
2022/11/08 13:19:00;;;;;;;32.67;5.07;;;14.20;99.90;;;;;;5069989;28;20484;-68